sensor_id;sensor_type;location;lat;lon;timestamp;P1;durP1;ratioP1;P2;durP2;ratioP2
7575;SDS011;3829;50.798;4.358;2023-11-21T00:00:17;41.23;;;22.27;;
7575;SDS011;3829;50.798;4.358;2023-11-21T00:02:43;43.53;;;21.67;;
7575;SDS011;3829;50.798;4.358;2023-11-21T00:05:10;39.83;;;21.23;;
7575;SDS011;3829;50.798;4.358;2023-11-21T00:07:39;36.00;;;19.87;;
7575;SDS011;3829;50.798;4.358;2023-11-21T00:10:05;41.13;;;21.80;;
7575;SDS011;3829;50.798;4.358;2023-11-21T00:12:31;44.47;;;21.87;;
7575;SDS011;3829;50.798;4.358;2023-11-21T00:14:58;42.97;;;22.17;;
7575;SDS011;3829;50.798;4.358;2023-11-21T00:17:24;43.70;;;21.23;;
7575;SDS011;3829;50.798;4.358;2023-11-21T00:19:50;42.10;;;22.10;;
7575;SDS011;3829;50.798;4.358;2023-11-21T00:22:17;48.13;;;21.97;;
7575;SDS011;3829;50.798;4.358;2023-11-21T00:24:43;44.90;;;21.40;;
7575;SDS011;3829;50.798;4.358;2023-11-21T00:27:08;36.80;;;20.63;;
7575;SDS011;3829;50.798;4.358;2023-11-21T00:29:34;41.33;;;20.13;;
7575;SDS011;3829;50.798;4.358;2023-11-21T00:31:59;39.00;;;20.23;;
7575;SDS011;3829;50.798;4.358;2023-11-21T00:34:25;45.70;;;21.03;;
7575;SDS011;3829;50.798;4.358;2023-11-21T00:36:51;41.90;;;20.60;;
7575;SDS011;3829;50.798;4.358;2023-11-21T00:39:16;43.57;;;20.10;;
7575;SDS011;3829;50.798;4.358;2023-11-21T00:41:42;43.03;;;21.53;;
7575;SDS011;3829;50.798;4.358;2023-11-21T00:44:09;41.77;;;20.50;;
7575;SDS011;3829;50.798;4.358;2023-11-21T00:46:35;42.73;;;19.70;;
7575;SDS011;3829;50.798;4.358;2023-11-21T00:49:01;38.80;;;19.83;;
7575;SDS011;3829;50.798;4.358;2023-11-21T00:51:29;37.63;;;19.97;;
7575;SDS011;3829;50.798;4.358;2023-11-21T00:53:55;37.53;;;18.93;;
7575;SDS011;3829;50.798;4.358;2023-11-21T00:56:20;41.47;;;20.00;;
7575;SDS011;3829;50.798;4.358;2023-11-21T00:58:46;40.63;;;19.73;;
7575;SDS011;3829;50.798;4.358;2023-11-21T01:01:15;80.30;;;18.97;;
7575;SDS011;3829;50.798;4.358;2023-11-21T01:03:41;39.57;;;19.80;;
7575;SDS011;3829;50.798;4.358;2023-11-21T01:06:07;36.37;;;17.43;;
7575;SDS011;3829;50.798;4.358;2023-11-21T01:08:33;62.53;;;17.30;;
7575;SDS011;3829;50.798;4.358;2023-11-21T01:10:59;34.93;;;17.63;;
7575;SDS011;3829;50.798;4.358;2023-11-21T01:13:25;38.83;;;19.53;;
7575;SDS011;3829;50.798;4.358;2023-11-21T01:15:54;41.93;;;20.43;;
7575;SDS011;3829;50.798;4.358;2023-11-21T01:18:20;39.73;;;20.40;;
7575;SDS011;3829;50.798;4.358;2023-11-21T01:20:46;43.00;;;19.07;;
7575;SDS011;3829;50.798;4.358;2023-11-21T01:23:12;34.27;;;17.80;;
7575;SDS011;3829;50.798;4.358;2023-11-21T01:25:38;39.77;;;18.97;;
7575;SDS011;3829;50.798;4.358;2023-11-21T01:28:04;37.53;;;19.60;;
7575;SDS011;3829;50.798;4.358;2023-11-21T01:30:30;34.20;;;17.63;;
7575;SDS011;3829;50.798;4.358;2023-11-21T01:32:57;37.67;;;17.90;;
7575;SDS011;3829;50.798;4.358;2023-11-21T01:35:23;36.80;;;18.87;;
7575;SDS011;3829;50.798;4.358;2023-11-21T01:37:48;36.70;;;17.57;;
7575;SDS011;3829;50.798;4.358;2023-11-21T01:40:14;39.07;;;18.30;;
7575;SDS011;3829;50.798;4.358;2023-11-21T01:42:40;33.07;;;16.33;;
7575;SDS011;3829;50.798;4.358;2023-11-21T01:45:08;27.67;;;16.43;;
7575;SDS011;3829;50.798;4.358;2023-11-21T01:47:35;35.77;;;17.53;;
7575;SDS011;3829;50.798;4.358;2023-11-21T01:50:01;36.67;;;19.00;;
7575;SDS011;3829;50.798;4.358;2023-11-21T01:52:30;34.07;;;16.70;;
7575;SDS011;3829;50.798;4.358;2023-11-21T01:54:56;38.97;;;19.47;;
7575;SDS011;3829;50.798;4.358;2023-11-21T01:57:24;40.93;;;19.07;;
7575;SDS011;3829;50.798;4.358;2023-11-21T01:59:50;37.40;;;18.87;;
7575;SDS011;3829;50.798;4.358;2023-11-21T02:02:18;34.70;;;17.80;;
7575;SDS011;3829;50.798;4.358;2023-11-21T02:04:44;42.73;;;19.17;;
7575;SDS011;3829;50.798;4.358;2023-11-21T02:07:09;40.93;;;20.43;;
7575;SDS011;3829;50.798;4.358;2023-11-21T02:09:35;40.40;;;20.43;;
7575;SDS011;3829;50.798;4.358;2023-11-21T02:12:03;37.23;;;19.40;;
7575;SDS011;3829;50.798;4.358;2023-11-21T02:14:30;44.67;;;20.63;;
7575;SDS011;3829;50.798;4.358;2023-11-21T02:16:56;37.17;;;18.67;;
7575;SDS011;3829;50.798;4.358;2023-11-21T02:19:22;37.80;;;18.57;;
7575;SDS011;3829;50.798;4.358;2023-11-21T02:21:50;41.63;;;21.27;;
7575;SDS011;3829;50.798;4.358;2023-11-21T02:24:19;37.63;;;19.37;;
7575;SDS011;3829;50.798;4.358;2023-11-21T02:26:46;42.57;;;19.63;;
7575;SDS011;3829;50.798;4.358;2023-11-21T02:29:12;47.57;;;22.23;;
7575;SDS011;3829;50.798;4.358;2023-11-21T02:31:38;45.40;;;20.77;;
7575;SDS011;3829;50.798;4.358;2023-11-21T02:34:13;44.70;;;21.97;;
7575;SDS011;3829;50.798;4.358;2023-11-21T02:36:39;43.97;;;19.97;;
7575;SDS011;3829;50.798;4.358;2023-11-21T02:39:05;43.27;;;21.47;;
7575;SDS011;3829;50.798;4.358;2023-11-21T02:41:32;38.73;;;20.80;;
7575;SDS011;3829;50.798;4.358;2023-11-21T02:43:59;45.07;;;21.20;;
7575;SDS011;3829;50.798;4.358;2023-11-21T02:46:25;36.07;;;20.97;;
7575;SDS011;3829;50.798;4.358;2023-11-21T02:48:51;44.03;;;21.37;;
7575;SDS011;3829;50.798;4.358;2023-11-21T02:51:19;41.00;;;21.50;;
7575;SDS011;3829;50.798;4.358;2023-11-21T02:53:44;44.93;;;22.03;;
7575;SDS011;3829;50.798;4.358;2023-11-21T02:56:11;44.23;;;21.43;;
7575;SDS011;3829;50.798;4.358;2023-11-21T02:58:37;42.03;;;21.90;;
7575;SDS011;3829;50.798;4.358;2023-11-21T03:01:03;41.17;;;20.40;;
7575;SDS011;3829;50.798;4.358;2023-11-21T03:03:30;40.97;;;20.17;;
7575;SDS011;3829;50.798;4.358;2023-11-21T03:05:56;42.33;;;21.20;;
7575;SDS011;3829;50.798;4.358;2023-11-21T03:08:22;36.73;;;20.53;;
7575;SDS011;3829;50.798;4.358;2023-11-21T03:10:48;43.87;;;21.10;;
7575;SDS011;3829;50.798;4.358;2023-11-21T03:13:14;47.00;;;21.47;;
7575;SDS011;3829;50.798;4.358;2023-11-21T03:15:39;39.77;;;20.70;;
7575;SDS011;3829;50.798;4.358;2023-11-21T03:18:05;45.30;;;21.20;;
7575;SDS011;3829;50.798;4.358;2023-11-21T03:20:30;44.77;;;20.17;;
7575;SDS011;3829;50.798;4.358;2023-11-21T03:22:56;40.77;;;21.27;;
7575;SDS011;3829;50.798;4.358;2023-11-21T03:25:21;43.07;;;21.23;;
7575;SDS011;3829;50.798;4.358;2023-11-21T03:27:48;46.93;;;22.10;;
7575;SDS011;3829;50.798;4.358;2023-11-21T03:30:14;39.60;;;21.60;;
7575;SDS011;3829;50.798;4.358;2023-11-21T03:32:41;43.90;;;20.80;;
7575;SDS011;3829;50.798;4.358;2023-11-21T03:35:07;44.93;;;21.40;;
7575;SDS011;3829;50.798;4.358;2023-11-21T03:37:33;50.53;;;24.03;;
7575;SDS011;3829;50.798;4.358;2023-11-21T03:39:58;40.47;;;21.43;;
7575;SDS011;3829;50.798;4.358;2023-11-21T03:42:24;40.60;;;21.40;;
7575;SDS011;3829;50.798;4.358;2023-11-21T03:44:51;43.63;;;22.27;;
7575;SDS011;3829;50.798;4.358;2023-11-21T03:47:17;42.73;;;22.10;;
7575;SDS011;3829;50.798;4.358;2023-11-21T03:49:44;37.53;;;21.13;;
7575;SDS011;3829;50.798;4.358;2023-11-21T03:52:10;46.10;;;22.00;;
7575;SDS011;3829;50.798;4.358;2023-11-21T03:54:36;41.00;;;23.20;;
7575;SDS011;3829;50.798;4.358;2023-11-21T03:57:02;40.37;;;22.03;;
7575;SDS011;3829;50.798;4.358;2023-11-21T03:59:28;41.80;;;21.53;;
7575;SDS011;3829;50.798;4.358;2023-11-21T04:01:55;36.93;;;22.00;;
7575;SDS011;3829;50.798;4.358;2023-11-21T04:04:22;35.13;;;20.47;;
7575;SDS011;3829;50.798;4.358;2023-11-21T04:06:47;36.33;;;20.00;;
7575;SDS011;3829;50.798;4.358;2023-11-21T04:09:13;42.10;;;21.00;;
7575;SDS011;3829;50.798;4.358;2023-11-21T04:11:39;39.67;;;21.47;;
7575;SDS011;3829;50.798;4.358;2023-11-21T04:14:04;36.27;;;19.93;;
7575;SDS011;3829;50.798;4.358;2023-11-21T04:16:30;42.37;;;21.20;;
7575;SDS011;3829;50.798;4.358;2023-11-21T04:18:55;41.37;;;20.90;;
7575;SDS011;3829;50.798;4.358;2023-11-21T04:21:22;37.20;;;20.70;;
7575;SDS011;3829;50.798;4.358;2023-11-21T04:23:49;38.23;;;20.57;;
7575;SDS011;3829;50.798;4.358;2023-11-21T04:26:15;39.53;;;20.97;;
7575;SDS011;3829;50.798;4.358;2023-11-21T04:28:41;30.83;;;19.20;;
7575;SDS011;3829;50.798;4.358;2023-11-21T04:31:06;33.10;;;19.40;;
7575;SDS011;3829;50.798;4.358;2023-11-21T04:33:32;32.63;;;18.77;;
7575;SDS011;3829;50.798;4.358;2023-11-21T04:35:58;34.87;;;19.73;;
7575;SDS011;3829;50.798;4.358;2023-11-21T04:38:23;33.83;;;19.90;;
7575;SDS011;3829;50.798;4.358;2023-11-21T04:40:49;36.77;;;20.20;;
7575;SDS011;3829;50.798;4.358;2023-11-21T04:43:14;29.27;;;17.77;;
7575;SDS011;3829;50.798;4.358;2023-11-21T04:45:40;32.40;;;18.60;;
7575;SDS011;3829;50.798;4.358;2023-11-21T04:48:06;31.10;;;18.13;;
7575;SDS011;3829;50.798;4.358;2023-11-21T04:50:33;34.63;;;19.17;;
7575;SDS011;3829;50.798;4.358;2023-11-21T04:52:59;33.50;;;19.20;;
7575;SDS011;3829;50.798;4.358;2023-11-21T04:55:25;37.20;;;18.73;;
7575;SDS011;3829;50.798;4.358;2023-11-21T04:57:53;29.87;;;19.53;;
7575;SDS011;3829;50.798;4.358;2023-11-21T05:00:19;30.00;;;17.73;;
7575;SDS011;3829;50.798;4.358;2023-11-21T05:02:46;35.77;;;19.67;;
7575;SDS011;3829;50.798;4.358;2023-11-21T05:05:12;32.87;;;19.57;;
7575;SDS011;3829;50.798;4.358;2023-11-21T05:07:39;39.53;;;19.07;;
7575;SDS011;3829;50.798;4.358;2023-11-21T05:10:06;34.73;;;17.93;;
7575;SDS011;3829;50.798;4.358;2023-11-21T05:12:35;32.90;;;19.60;;
7575;SDS011;3829;50.798;4.358;2023-11-21T05:15:03;34.50;;;18.97;;
7575;SDS011;3829;50.798;4.358;2023-11-21T05:17:37;36.80;;;19.30;;
7575;SDS011;3829;50.798;4.358;2023-11-21T05:20:07;32.53;;;18.97;;
7575;SDS011;3829;50.798;4.358;2023-11-21T05:22:34;31.00;;;18.43;;
7575;SDS011;3829;50.798;4.358;2023-11-21T05:25:01;46.20;;;20.70;;
7575;SDS011;3829;50.798;4.358;2023-11-21T05:27:28;38.80;;;21.27;;
7575;SDS011;3829;50.798;4.358;2023-11-21T05:29:55;32.47;;;19.20;;
7575;SDS011;3829;50.798;4.358;2023-11-21T05:32:21;32.33;;;19.73;;
7575;SDS011;3829;50.798;4.358;2023-11-21T05:34:48;29.17;;;18.17;;
7575;SDS011;3829;50.798;4.358;2023-11-21T05:37:14;42.50;;;20.23;;
7575;SDS011;3829;50.798;4.358;2023-11-21T05:39:39;32.70;;;19.00;;
7575;SDS011;3829;50.798;4.358;2023-11-21T05:42:05;35.87;;;19.13;;
7575;SDS011;3829;50.798;4.358;2023-11-21T05:44:31;41.60;;;19.90;;
7575;SDS011;3829;50.798;4.358;2023-11-21T05:46:57;36.73;;;20.33;;
7575;SDS011;3829;50.798;4.358;2023-11-21T05:49:23;38.73;;;20.77;;
7575;SDS011;3829;50.798;4.358;2023-11-21T05:51:51;41.10;;;21.63;;
7575;SDS011;3829;50.798;4.358;2023-11-21T05:54:19;36.13;;;20.63;;
7575;SDS011;3829;50.798;4.358;2023-11-21T05:56:44;37.30;;;20.37;;
7575;SDS011;3829;50.798;4.358;2023-11-21T05:59:12;45.47;;;20.80;;
7575;SDS011;3829;50.798;4.358;2023-11-21T06:01:37;35.50;;;20.87;;
7575;SDS011;3829;50.798;4.358;2023-11-21T06:04:04;35.20;;;18.97;;
7575;SDS011;3829;50.798;4.358;2023-11-21T06:06:30;40.80;;;20.23;;
7575;SDS011;3829;50.798;4.358;2023-11-21T06:08:56;40.50;;;20.07;;
7575;SDS011;3829;50.798;4.358;2023-11-21T06:11:22;38.73;;;20.33;;
7575;SDS011;3829;50.798;4.358;2023-11-21T06:13:47;44.87;;;21.40;;
7575;SDS011;3829;50.798;4.358;2023-11-21T06:16:14;34.23;;;20.67;;
7575;SDS011;3829;50.798;4.358;2023-11-21T06:18:42;43.97;;;21.50;;
7575;SDS011;3829;50.798;4.358;2023-11-21T06:21:09;37.13;;;20.27;;
7575;SDS011;3829;50.798;4.358;2023-11-21T06:23:35;42.33;;;20.77;;
7575;SDS011;3829;50.798;4.358;2023-11-21T06:26:01;43.27;;;20.43;;
7575;SDS011;3829;50.798;4.358;2023-11-21T06:28:26;41.23;;;19.93;;
7575;SDS011;3829;50.798;4.358;2023-11-21T06:30:52;43.87;;;20.87;;
7575;SDS011;3829;50.798;4.358;2023-11-21T06:33:18;38.80;;;21.87;;
7575;SDS011;3829;50.798;4.358;2023-11-21T06:35:44;44.57;;;20.90;;
7575;SDS011;3829;50.798;4.358;2023-11-21T06:38:10;43.47;;;20.20;;
7575;SDS011;3829;50.798;4.358;2023-11-21T06:40:35;40.63;;;21.60;;
7575;SDS011;3829;50.798;4.358;2023-11-21T06:43:01;37.23;;;20.53;;
7575;SDS011;3829;50.798;4.358;2023-11-21T06:45:27;39.67;;;21.93;;
7575;SDS011;3829;50.798;4.358;2023-11-21T06:47:52;39.87;;;21.17;;
7575;SDS011;3829;50.798;4.358;2023-11-21T06:50:18;38.30;;;20.20;;
7575;SDS011;3829;50.798;4.358;2023-11-21T06:52:44;47.20;;;21.90;;
7575;SDS011;3829;50.798;4.358;2023-11-21T06:55:09;35.73;;;20.23;;
7575;SDS011;3829;50.798;4.358;2023-11-21T06:57:35;42.77;;;21.00;;
7575;SDS011;3829;50.798;4.358;2023-11-21T07:00:02;49.23;;;24.07;;
7575;SDS011;3829;50.798;4.358;2023-11-21T07:02:28;38.27;;;21.17;;
7575;SDS011;3829;50.798;4.358;2023-11-21T07:04:54;34.07;;;19.90;;
7575;SDS011;3829;50.798;4.358;2023-11-21T07:07:19;35.13;;;20.90;;
7575;SDS011;3829;50.798;4.358;2023-11-21T07:09:45;33.50;;;19.77;;
7575;SDS011;3829;50.798;4.358;2023-11-21T07:12:11;42.40;;;21.60;;
7575;SDS011;3829;50.798;4.358;2023-11-21T07:14:36;35.77;;;20.30;;
7575;SDS011;3829;50.798;4.358;2023-11-21T07:17:04;41.53;;;21.87;;
7575;SDS011;3829;50.798;4.358;2023-11-21T07:19:29;42.37;;;22.47;;
7575;SDS011;3829;50.798;4.358;2023-11-21T07:21:55;42.40;;;22.47;;
7575;SDS011;3829;50.798;4.358;2023-11-21T07:24:21;41.00;;;22.97;;
7575;SDS011;3829;50.798;4.358;2023-11-21T07:26:48;51.43;;;24.00;;
7575;SDS011;3829;50.798;4.358;2023-11-21T07:29:13;43.50;;;23.00;;
7575;SDS011;3829;50.798;4.358;2023-11-21T07:31:39;46.30;;;23.77;;
7575;SDS011;3829;50.798;4.358;2023-11-21T07:34:06;48.13;;;25.80;;
7575;SDS011;3829;50.798;4.358;2023-11-21T07:36:33;57.30;;;24.87;;
7575;SDS011;3829;50.798;4.358;2023-11-21T07:38:58;62.37;;;25.47;;
7575;SDS011;3829;50.798;4.358;2023-11-21T07:41:24;48.00;;;24.87;;
7575;SDS011;3829;50.798;4.358;2023-11-21T07:43:50;55.33;;;26.27;;
7575;SDS011;3829;50.798;4.358;2023-11-21T07:46:15;49.60;;;24.60;;
7575;SDS011;3829;50.798;4.358;2023-11-21T07:48:41;52.60;;;24.87;;
7575;SDS011;3829;50.798;4.358;2023-11-21T07:51:07;56.47;;;26.43;;
7575;SDS011;3829;50.798;4.358;2023-11-21T07:53:34;53.83;;;24.97;;
7575;SDS011;3829;50.798;4.358;2023-11-21T07:56:08;52.13;;;25.47;;
7575;SDS011;3829;50.798;4.358;2023-11-21T07:58:34;49.53;;;25.40;;
7575;SDS011;3829;50.798;4.358;2023-11-21T08:01:01;54.10;;;26.47;;
7575;SDS011;3829;50.798;4.358;2023-11-21T08:03:27;62.00;;;25.63;;
7575;SDS011;3829;50.798;4.358;2023-11-21T08:05:57;60.03;;;24.43;;
7575;SDS011;3829;50.798;4.358;2023-11-21T08:08:25;59.40;;;25.50;;
7575;SDS011;3829;50.798;4.358;2023-11-21T08:10:51;57.47;;;25.90;;
7575;SDS011;3829;50.798;4.358;2023-11-21T08:13:21;50.20;;;24.30;;
7575;SDS011;3829;50.798;4.358;2023-11-21T08:15:49;59.27;;;26.17;;
7575;SDS011;3829;50.798;4.358;2023-11-21T08:18:16;53.97;;;25.37;;
7575;SDS011;3829;50.798;4.358;2023-11-21T08:20:45;66.40;;;24.90;;
7575;SDS011;3829;50.798;4.358;2023-11-21T08:23:13;57.40;;;24.37;;
7575;SDS011;3829;50.798;4.358;2023-11-21T08:25:42;61.50;;;24.90;;
7575;SDS011;3829;50.798;4.358;2023-11-21T08:28:08;61.92;;;27.30;;
7575;SDS011;3829;50.798;4.358;2023-11-21T08:30:34;62.57;;;26.70;;
7575;SDS011;3829;50.798;4.358;2023-11-21T08:33:00;52.53;;;23.97;;
7575;SDS011;3829;50.798;4.358;2023-11-21T08:35:28;59.07;;;25.93;;
7575;SDS011;3829;50.798;4.358;2023-11-21T08:37:53;62.90;;;25.37;;
7575;SDS011;3829;50.798;4.358;2023-11-21T08:40:22;52.97;;;24.67;;
7575;SDS011;3829;50.798;4.358;2023-11-21T08:42:48;57.03;;;25.73;;
7575;SDS011;3829;50.798;4.358;2023-11-21T08:45:16;68.87;;;26.13;;
7575;SDS011;3829;50.798;4.358;2023-11-21T08:47:42;57.57;;;24.30;;
7575;SDS011;3829;50.798;4.358;2023-11-21T08:50:10;50.50;;;24.13;;
7575;SDS011;3829;50.798;4.358;2023-11-21T08:52:37;56.67;;;25.73;;
7575;SDS011;3829;50.798;4.358;2023-11-21T08:55:05;63.67;;;25.43;;
7575;SDS011;3829;50.798;4.358;2023-11-21T08:57:36;60.27;;;24.80;;
7575;SDS011;3829;50.798;4.358;2023-11-21T09:00:03;71.10;;;26.17;;
7575;SDS011;3829;50.798;4.358;2023-11-21T09:02:36;64.57;;;26.47;;
7575;SDS011;3829;50.798;4.358;2023-11-21T09:05:03;60.27;;;26.40;;
7575;SDS011;3829;50.798;4.358;2023-11-21T09:07:30;56.00;;;26.30;;
7575;SDS011;3829;50.798;4.358;2023-11-21T09:09:56;121.13;;;34.13;;
7575;SDS011;3829;50.798;4.358;2023-11-21T09:12:22;68.10;;;25.93;;
7575;SDS011;3829;50.798;4.358;2023-11-21T09:14:49;65.30;;;26.20;;
7575;SDS011;3829;50.798;4.358;2023-11-21T09:17:15;66.43;;;26.87;;
7575;SDS011;3829;50.798;4.358;2023-11-21T09:19:41;55.90;;;26.13;;
7575;SDS011;3829;50.798;4.358;2023-11-21T09:22:10;57.90;;;26.47;;
7575;SDS011;3829;50.798;4.358;2023-11-21T09:24:35;70.90;;;25.37;;
7575;SDS011;3829;50.798;4.358;2023-11-21T09:27:02;46.63;;;24.00;;
7575;SDS011;3829;50.798;4.358;2023-11-21T09:29:28;60.73;;;24.43;;
7575;SDS011;3829;50.798;4.358;2023-11-21T09:31:54;86.70;;;39.57;;
7575;SDS011;3829;50.798;4.358;2023-11-21T09:34:20;58.13;;;25.47;;
7575;SDS011;3829;50.798;4.358;2023-11-21T09:36:47;54.90;;;25.13;;
7575;SDS011;3829;50.798;4.358;2023-11-21T09:39:13;58.23;;;25.40;;
7575;SDS011;3829;50.798;4.358;2023-11-21T09:41:43;58.10;;;24.37;;
7575;SDS011;3829;50.798;4.358;2023-11-21T09:44:24;55.57;;;25.33;;
7575;SDS011;3829;50.798;4.358;2023-11-21T09:46:59;57.07;;;25.57;;
7575;SDS011;3829;50.798;4.358;2023-11-21T09:49:25;55.20;;;25.43;;
7575;SDS011;3829;50.798;4.358;2023-11-21T09:51:54;60.93;;;24.50;;
7575;SDS011;3829;50.798;4.358;2023-11-21T09:54:22;54.60;;;24.20;;
7575;SDS011;3829;50.798;4.358;2023-11-21T09:56:48;51.97;;;23.63;;
7575;SDS011;3829;50.798;4.358;2023-11-21T09:59:15;50.67;;;24.77;;
7575;SDS011;3829;50.798;4.358;2023-11-21T10:01:41;67.13;;;26.63;;
7575;SDS011;3829;50.798;4.358;2023-11-21T10:04:08;62.90;;;28.00;;
7575;SDS011;3829;50.798;4.358;2023-11-21T10:06:37;65.70;;;27.20;;
7575;SDS011;3829;50.798;4.358;2023-11-21T10:09:07;58.90;;;27.00;;
7575;SDS011;3829;50.798;4.358;2023-11-21T10:11:39;65.00;;;26.73;;
7575;SDS011;3829;50.798;4.358;2023-11-21T10:14:06;79.23;;;27.50;;
7575;SDS011;3829;50.798;4.358;2023-11-21T10:16:35;75.67;;;27.47;;
7575;SDS011;3829;50.798;4.358;2023-11-21T10:19:04;74.80;;;29.93;;
7575;SDS011;3829;50.798;4.358;2023-11-21T10:21:32;58.70;;;27.07;;
7575;SDS011;3829;50.798;4.358;2023-11-21T10:23:58;65.33;;;31.27;;
7575;SDS011;3829;50.798;4.358;2023-11-21T10:26:25;73.30;;;28.10;;
7575;SDS011;3829;50.798;4.358;2023-11-21T10:28:57;54.10;;;26.60;;
7575;SDS011;3829;50.798;4.358;2023-11-21T10:31:23;51.33;;;25.63;;
7575;SDS011;3829;50.798;4.358;2023-11-21T10:33:51;40.33;;;21.73;;
7575;SDS011;3829;50.798;4.358;2023-11-21T10:36:26;44.80;;;23.53;;
7575;SDS011;3829;50.798;4.358;2023-11-21T10:38:52;46.07;;;21.00;;
7575;SDS011;3829;50.798;4.358;2023-11-21T10:41:19;46.47;;;22.17;;
7575;SDS011;3829;50.798;4.358;2023-11-21T10:43:46;35.73;;;20.57;;
7575;SDS011;3829;50.798;4.358;2023-11-21T10:46:16;39.27;;;20.93;;
7575;SDS011;3829;50.798;4.358;2023-11-21T10:48:41;35.37;;;20.00;;
7575;SDS011;3829;50.798;4.358;2023-11-21T10:51:07;34.73;;;19.30;;
7575;SDS011;3829;50.798;4.358;2023-11-21T10:53:38;30.10;;;18.70;;
7575;SDS011;3829;50.798;4.358;2023-11-21T10:56:06;34.20;;;20.47;;
7575;SDS011;3829;50.798;4.358;2023-11-21T10:58:35;31.90;;;19.00;;
7575;SDS011;3829;50.798;4.358;2023-11-21T11:01:03;38.30;;;19.53;;
7575;SDS011;3829;50.798;4.358;2023-11-21T11:03:31;35.10;;;19.07;;
7575;SDS011;3829;50.798;4.358;2023-11-21T11:06:02;30.93;;;18.67;;
7575;SDS011;3829;50.798;4.358;2023-11-21T11:08:29;34.73;;;20.33;;
7575;SDS011;3829;50.798;4.358;2023-11-21T11:10:56;34.40;;;19.77;;
7575;SDS011;3829;50.798;4.358;2023-11-21T11:13:23;39.27;;;20.10;;
7575;SDS011;3829;50.798;4.358;2023-11-21T11:15:49;38.27;;;20.10;;
7575;SDS011;3829;50.798;4.358;2023-11-21T11:18:20;37.13;;;20.47;;
7575;SDS011;3829;50.798;4.358;2023-11-21T11:20:47;37.70;;;20.87;;
7575;SDS011;3829;50.798;4.358;2023-11-21T11:26:07;38.20;;;21.50;;
7575;SDS011;3829;50.798;4.358;2023-11-21T11:28:47;41.47;;;22.53;;
7575;SDS011;3829;50.798;4.358;2023-11-21T11:31:26;37.73;;;21.43;;
7575;SDS011;3829;50.798;4.358;2023-11-21T11:36:54;39.77;;;22.40;;
7575;SDS011;3829;50.798;4.358;2023-11-21T11:39:30;40.87;;;23.87;;
7575;SDS011;3829;50.798;4.358;2023-11-21T11:42:01;40.13;;;23.93;;
7575;SDS011;3829;50.798;4.358;2023-11-21T11:47:27;44.60;;;25.33;;
7575;SDS011;3829;50.798;4.358;2023-11-21T11:52:42;46.57;;;27.40;;
7575;SDS011;3829;50.798;4.358;2023-11-21T11:55:11;49.33;;;26.93;;
7575;SDS011;3829;50.798;4.358;2023-11-21T11:57:40;38.87;;;24.53;;
7575;SDS011;3829;50.798;4.358;2023-11-21T12:00:09;37.33;;;24.00;;
7575;SDS011;3829;50.798;4.358;2023-11-21T12:02:51;37.97;;;24.20;;
7575;SDS011;3829;50.798;4.358;2023-11-21T12:05:19;36.60;;;23.73;;
7575;SDS011;3829;50.798;4.358;2023-11-21T12:07:50;38.30;;;23.77;;
7575;SDS011;3829;50.798;4.358;2023-11-21T12:10:19;39.40;;;22.63;;
7575;SDS011;3829;50.798;4.358;2023-11-21T12:12:46;30.40;;;20.07;;
7575;SDS011;3829;50.798;4.358;2023-11-21T12:15:13;31.00;;;20.00;;
7575;SDS011;3829;50.798;4.358;2023-11-21T12:17:41;33.80;;;19.17;;
7575;SDS011;3829;50.798;4.358;2023-11-21T12:20:08;24.13;;;16.50;;
7575;SDS011;3829;50.798;4.358;2023-11-21T12:22:43;24.03;;;16.23;;
7575;SDS011;3829;50.798;4.358;2023-11-21T12:25:12;28.40;;;17.33;;
7575;SDS011;3829;50.798;4.358;2023-11-21T12:27:46;26.73;;;16.30;;
7575;SDS011;3829;50.798;4.358;2023-11-21T12:30:14;24.03;;;16.27;;
7575;SDS011;3829;50.798;4.358;2023-11-21T12:32:42;27.17;;;16.87;;
7575;SDS011;3829;50.798;4.358;2023-11-21T12:35:11;25.03;;;17.10;;
7575;SDS011;3829;50.798;4.358;2023-11-21T12:37:38;27.20;;;17.80;;
7575;SDS011;3829;50.798;4.358;2023-11-21T12:40:05;24.10;;;16.43;;
7575;SDS011;3829;50.798;4.358;2023-11-21T12:42:33;22.57;;;16.57;;
7575;SDS011;3829;50.798;4.358;2023-11-21T12:45:08;26.30;;;16.60;;
7575;SDS011;3829;50.798;4.358;2023-11-21T12:47:43;25.13;;;17.10;;
7575;SDS011;3829;50.798;4.358;2023-11-21T12:50:10;28.63;;;16.73;;
7575;SDS011;3829;50.798;4.358;2023-11-21T12:52:47;24.63;;;17.03;;
7575;SDS011;3829;50.798;4.358;2023-11-21T12:55:13;27.13;;;17.80;;
7575;SDS011;3829;50.798;4.358;2023-11-21T12:57:44;20.10;;;14.53;;
7575;SDS011;3829;50.798;4.358;2023-11-21T13:00:11;21.63;;;14.33;;
7575;SDS011;3829;50.798;4.358;2023-11-21T13:02:49;18.00;;;13.20;;
7575;SDS011;3829;50.798;4.358;2023-11-21T13:05:23;22.90;;;15.20;;
7575;SDS011;3829;50.798;4.358;2023-11-21T13:07:51;21.17;;;13.07;;
7575;SDS011;3829;50.798;4.358;2023-11-21T13:10:19;25.20;;;13.80;;
7575;SDS011;3829;50.798;4.358;2023-11-21T13:12:50;27.00;;;15.00;;
7575;SDS011;3829;50.798;4.358;2023-11-21T13:15:17;19.70;;;13.70;;
7575;SDS011;3829;50.798;4.358;2023-11-21T13:17:43;21.40;;;13.03;;
7575;SDS011;3829;50.798;4.358;2023-11-21T13:20:10;21.27;;;13.07;;
7575;SDS011;3829;50.798;4.358;2023-11-21T13:22:49;18.83;;;12.60;;
7575;SDS011;3829;50.798;4.358;2023-11-21T13:25:19;23.60;;;14.57;;
7575;SDS011;3829;50.798;4.358;2023-11-21T13:27:46;23.43;;;13.93;;
7575;SDS011;3829;50.798;4.358;2023-11-21T13:30:12;25.73;;;15.20;;
7575;SDS011;3829;50.798;4.358;2023-11-21T13:32:41;26.97;;;15.23;;
7575;SDS011;3829;50.798;4.358;2023-11-21T13:35:07;26.13;;;16.07;;
7575;SDS011;3829;50.798;4.358;2023-11-21T13:37:37;30.03;;;17.70;;
7575;SDS011;3829;50.798;4.358;2023-11-21T13:40:03;28.13;;;17.23;;
7575;SDS011;3829;50.798;4.358;2023-11-21T13:42:35;24.57;;;16.50;;
7575;SDS011;3829;50.798;4.358;2023-11-21T13:45:00;26.27;;;17.03;;
7575;SDS011;3829;50.798;4.358;2023-11-21T13:47:26;25.47;;;16.00;;
7575;SDS011;3829;50.798;4.358;2023-11-21T13:49:54;24.37;;;16.50;;
7575;SDS011;3829;50.798;4.358;2023-11-21T13:52:20;24.50;;;17.73;;
7575;SDS011;3829;50.798;4.358;2023-11-21T13:54:49;26.03;;;17.40;;
7575;SDS011;3829;50.798;4.358;2023-11-21T13:57:15;25.47;;;17.70;;
7575;SDS011;3829;50.798;4.358;2023-11-21T13:59:41;32.10;;;17.57;;
7575;SDS011;3829;50.798;4.358;2023-11-21T14:02:09;26.97;;;16.47;;
7575;SDS011;3829;50.798;4.358;2023-11-21T14:04:43;21.97;;;16.13;;
7575;SDS011;3829;50.798;4.358;2023-11-21T14:07:20;25.53;;;16.00;;
7575;SDS011;3829;50.798;4.358;2023-11-21T14:09:56;17.73;;;13.47;;
7575;SDS011;3829;50.798;4.358;2023-11-21T14:12:23;18.83;;;13.30;;
7575;SDS011;3829;50.798;4.358;2023-11-21T14:14:49;19.00;;;11.50;;
7575;SDS011;3829;50.798;4.358;2023-11-21T14:17:15;15.07;;;11.10;;
7575;SDS011;3829;50.798;4.358;2023-11-21T14:19:40;16.67;;;11.60;;
7575;SDS011;3829;50.798;4.358;2023-11-21T14:22:08;15.93;;;11.47;;
7575;SDS011;3829;50.798;4.358;2023-11-21T14:24:35;13.77;;;11.27;;
7575;SDS011;3829;50.798;4.358;2023-11-21T14:27:01;12.63;;;9.47;;
7575;SDS011;3829;50.798;4.358;2023-11-21T14:29:28;11.50;;;8.17;;
7575;SDS011;3829;50.798;4.358;2023-11-21T14:31:54;11.30;;;8.00;;
7575;SDS011;3829;50.798;4.358;2023-11-21T14:34:23;11.17;;;8.17;;
7575;SDS011;3829;50.798;4.358;2023-11-21T14:36:49;9.77;;;7.90;;
7575;SDS011;3829;50.798;4.358;2023-11-21T14:39:15;10.33;;;7.13;;
7575;SDS011;3829;50.798;4.358;2023-11-21T14:41:48;10.80;;;7.20;;
7575;SDS011;3829;50.798;4.358;2023-11-21T14:44:14;12.67;;;7.93;;
7575;SDS011;3829;50.798;4.358;2023-11-21T14:46:40;12.83;;;7.50;;
7575;SDS011;3829;50.798;4.358;2023-11-21T14:49:11;10.67;;;7.80;;
7575;SDS011;3829;50.798;4.358;2023-11-21T14:51:44;12.60;;;8.43;;
7575;SDS011;3829;50.798;4.358;2023-11-21T14:54:25;11.40;;;8.57;;
7575;SDS011;3829;50.798;4.358;2023-11-21T14:57:05;14.37;;;8.97;;
7575;SDS011;3829;50.798;4.358;2023-11-21T14:59:37;10.97;;;8.43;;